Shirley, NY

3:07 AM EDT on September 21, 2014 (GMT -0400)
Brookhaven | Change Station
CLOSE
Current Station
Airport
Location: Shirley,
Elevation: 82 ft
Nearby Weather Stations

Elev 82 ft 40.82 °N, 72.87 °W | Updated 11 minutes ago

Mostly Cloudy
Mostly Cloudy
68 °F
Feels Like 68 °F
N
0
Wind Variable Wind from North

Today
High -- | Low -- °F
--% Chance of Precip.
Yesterday
High -- | Low -- °F
Precip. -- in
6:38 AM 6:50 PM
Waning Crescent, 8% visible
Pressure 29.98 in
Visibility 4.0 miles
Clouds Mostly Cloudy 2600 ft
Overcast 3500 ft
Dew Point 67 °F
Humidity 96%
Rainfall 0.12 in
Snow Depth Not available.
UV 0 out of 12
Pollen 2.70 out of 12
Air Quality Not available.
Flu Activity Not available.
METAR KHWV 210656Z AUTO 00000KT 4SM RA BR BKN026 OVC035 20/19 A2998 RMK AO2 SLP152 P0009 T02000194 TSNO

More Conditions Fewer Conditions

Pressure 29.98 in
Visibility 4.0 miles
Clouds Mostly Cloudy 2600 ft
Overcast 3500 ft
Dew Point 67 °F
Humidity 96%
Rainfall 0.12 in
Snow Depth Not available.
UV 0 out of 12
Pollen 2.70 out of 12
Air Quality Not available.
Flu Activity Not available.
METAR KHWV 210656Z AUTO 00000KT 4SM RA BR BKN026 OVC035 20/19 A2998 RMK AO2 SLP152 P0009 T02000194 TSNO

More Conditions Fewer Conditions

Nowcast | as of 3:03 am EDT on September 21, 2014

At 302 am EDT...National Weather Service Doppler radar in Upton NY indicated an area of thunderstorms along a line extending from Middle Island to southeast of Robert Moses State Park...moving northeast at 25 mph. The thunderstorms will be near... Shirley...carmans river and Brookhaven National laboratory by 320 am... Wading River...Shirley and Mastic by 330 am... Mastic Beach by 340 am... East Moriches...Manorville...Center Moriches and Calverton by 350 am... Remsenburg-Speonk by 400 am... Moderate to locally heavy rain and lightning strikes are expected with this activity. Up to 1/2 to 3/4 inch of rainfall in an hour will cause some ponding on roadways.

×

10-Day Weather Forecast

Almanac

Astronomy

Sep. 21, 2014 Rise Set
Actual Time 6:38 AM EDT 6:50 PM EDT
Civil Twilight 6:10 AM EDT 7:17 PM EDT
Nautical Twilight 5:38 AM EDT 7:49 PM EDT
Astronomical Twilight 5:05 AM EDT 8:22 PM EDT
Moon 4:08 AM EDT 5:25 PM EDT
Length of Visible Light 13h 07m
Length of Day
12h 12m
Tomorrow will be 2m 41s shorter.
Waning Crescent, 8% of the Moon is Illuminated
Today
Waning Crescent
Sep 24
New
Oct 1
First Quarter
Oct 8
Full
Oct 15
Last Quarter

Today's Extremes

State Highs State Lows

Community

WunderPhotos

Upload Photos

1,755,101 photos uploaded!

Nearby

Air Quality

  Air Quality AQ Index Pollutant
Yesterday Good
OZONE
Sunday Good
OZONE
Sunday Good
PM2.5
Monday Good
OZONE
Monday Good
PM2.5

Snow Depth

Station Depth Elevation
No new snow has been reported.

Earthquake Activity

City Distance Mag. Time & Date
No recent earthquake activity has been reported nearby.
Minimum magnitude displayed is 2.5.

Coastal Water Temperatures

Place Temperature
No Stations Reporting

Nearby Weather Stations